Time;durP1;ratioP1;P1;durP2;ratioP2;P2;SDS_P1;SDS_P2;PMS_P1;PMS_P2;Temp;Humidity;BMP_temperature;BMP_pressure;BME280_temperature;BME280_humidity;BME280_pressure;Samples;Min_cycle;Max_cycle;Signal;HPM_P1;HPM_P2
2022/03/12 00:00:31;;;;;;;13.13;5.50;;;4.90;59.60;;;;;;4809949;29;20046;-72
2022/03/12 00:02:57;;;;;;;12.75;5.38;;;5.10;59.90;;;;;;4794624;29;20137;-72
2022/03/12 00:05:25;;;;;;;14.05;5.90;;;4.90;59.90;;;;;;4810415;29;20568;-73
2022/03/12 00:07:51;;;;;;;14.02;6.13;;;4.90;60.10;;;;;;4826253;29;20110;-70
2022/03/12 00:10:23;;;;;;;13.63;6.13;;;4.90;59.90;;;;;;4826180;29;20054;-73
2022/03/12 00:12:50;;;;;;;14.40;5.88;;;4.90;60.00;;;;;;4826254;29;20202;-72
2022/03/12 00:15:15;;;;;;;13.13;5.75;;;4.80;60.10;;;;;;4826135;29;20064;-71
2022/03/12 00:17:46;;;;;;;14.57;6.32;;;4.80;60.10;;;;;;4822043;29;20053;-72
2022/03/12 00:20:18;;;;;;;15.57;5.93;;;4.90;60.30;;;;;;4843959;29;20447;-73
2022/03/12 00:22:47;;;;;;;13.45;6.20;;;4.90;60.20;;;;;;4843627;29;20057;-71
2022/03/12 00:25:19;;;;;;;11.98;5.50;;;4.80;60.20;;;;;;4844220;29;20073;-72
2022/03/12 00:27:45;;;;;;;13.30;6.47;;;4.90;60.30;;;;;;4843949;29;20045;-72
2022/03/12 00:30:16;;;;;;;15.10;6.20;;;4.80;60.10;;;;;;4827527;29;20065;-72
2022/03/12 00:32:42;;;;;;;14.43;6.45;;;4.80;60.20;;;;;;4843923;29;20050;-72
2022/03/12 00:35:11;;;;;;;11.65;5.22;;;4.80;60.20;;;;;;4844177;29;20049;-72
2022/03/12 00:37:38;;;;;;;14.27;6.03;;;4.80;60.20;;;;;;4844326;29;20042;-71
2022/03/12 00:40:05;;;;;;;13.10;5.70;;;5.10;60.40;;;;;;4827438;29;20062;-71
2022/03/12 00:42:31;;;;;;;12.65;5.53;;;4.80;60.20;;;;;;4843888;29;20060;-72
2022/03/12 00:44:57;;;;;;;13.65;5.15;;;4.80;60.20;;;;;;4844079;29;20050;-72
2022/03/12 00:47:23;;;;;;;16.23;5.68;;;4.80;60.30;;;;;;4844068;29;20509;-72
2022/03/12 00:49:50;;;;;;;15.80;6.00;;;5.10;60.40;;;;;;4843514;29;20042;-72
2022/03/12 00:52:16;;;;;;;13.90;5.95;;;4.80;60.30;;;;;;4843962;29;20098;-72
2022/03/12 00:54:43;;;;;;;11.95;5.00;;;4.80;60.40;;;;;;4843785;29;20089;-72
2022/03/12 00:57:11;;;;;;;15.40;5.93;;;4.80;60.40;;;;;;4843822;29;20062;-71
2022/03/12 00:59:43;;;;;;;14.10;6.00;;;4.70;60.40;;;;;;4842717;29;20085;-72
2022/03/12 01:02:10;;;;;;;15.40;5.93;;;4.80;60.50;;;;;;4843904;29;20053;-72
2022/03/12 01:04:37;;;;;;;11.82;5.80;;;4.70;60.60;;;;;;4826117;29;20066;-72
2022/03/12 01:07:03;;;;;;;14.45;6.25;;;4.70;60.80;;;;;;4843703;29;20057;-71
2022/03/12 01:09:29;;;;;;;13.57;6.28;;;4.70;60.70;;;;;;4843657;29;20042;-72
2022/03/12 01:11:55;;;;;;;13.07;6.03;;;4.60;60.70;;;;;;4843523;29;20050;-72
2022/03/12 01:14:21;;;;;;;11.10;5.47;;;4.60;60.80;;;;;;4842624;29;20524;-72
2022/03/12 01:16:47;;;;;;;12.85;5.90;;;4.60;60.70;;;;;;4843582;29;20046;-71
2022/03/12 01:19:13;;;;;;;14.45;6.50;;;4.60;60.90;;;;;;4843436;29;20411;-72
2022/03/12 01:21:39;;;;;;;12.80;5.82;;;4.60;60.90;;;;;;4842968;29;20499;-72
2022/03/12 01:24:05;;;;;;;13.77;6.18;;;5.00;61.20;;;;;;4843230;29;20056;-70
2022/03/12 01:26:30;;;;;;;12.02;6.07;;;4.60;61.10;;;;;;4843289;29;20129;-72
2022/03/12 01:28:56;;;;;;;12.73;6.15;;;4.60;61.10;;;;;;4843315;29;20057;-71
2022/03/12 01:31:22;;;;;;;13.52;5.70;;;4.50;61.20;;;;;;4826746;29;20137;-71
2022/03/12 01:33:48;;;;;;;12.73;5.88;;;4.50;62.00;;;;;;4827079;29;20053;-71
2022/03/12 01:36:15;;;;;;;16.25;6.38;;;4.50;61.40;;;;;;4842934;29;20054;-72
2022/03/12 01:39:07;;;;;;;14.00;6.15;;;4.50;61.60;;;;;;4826830;29;20080;-71
2022/03/12 01:41:38;;;;;;;14.10;6.30;;;4.40;61.90;;;;;;4768600;30;20618;-71
2022/03/12 01:44:04;;;;;;;21.40;6.20;;;4.40;61.80;;;;;;4769031;30;20102;-72
2022/03/12 01:46:40;;;;;;;13.07;5.68;;;4.40;62.00;;;;;;4753678;30;20059;-74
2022/03/12 01:49:10;;;;;;;13.30;5.97;;;4.40;61.90;;;;;;4768780;30;20056;-74
2022/03/12 01:51:37;;;;;;;13.45;5.95;;;4.40;62.00;;;;;;4767413;30;20060;-72
2022/03/12 01:54:04;;;;;;;15.00;5.90;;;4.40;62.00;;;;;;4768669;30;20070;-72
2022/03/12 01:56:34;;;;;;;13.60;6.38;;;4.40;62.00;;;;;;4768241;30;20059;-72
2022/03/12 01:59:01;;;;;;;13.77;6.30;;;4.40;62.00;;;;;;4768245;30;20056;-71
2022/03/12 02:01:28;;;;;;;13.57;5.70;;;4.40;62.10;;;;;;4768235;30;20052;-72
2022/03/12 02:03:56;;;;;;;11.77;6.05;;;4.40;62.20;;;;;;4768372;30;20054;-71
2022/03/12 02:06:22;;;;;;;12.82;5.90;;;4.40;62.40;;;;;;4768239;30;20060;-73
2022/03/12 02:08:49;;;;;;;12.23;5.80;;;4.40;62.30;;;;;;4767779;30;20498;-71
2022/03/12 02:11:25;;;;;;;12.65;6.47;;;4.40;62.40;;;;;;4768151;30;20069;-71
2022/03/12 02:14:01;;;;;;;13.00;6.30;;;4.90;62.50;;;;;;4768010;30;20453;-71
2022/03/12 02:16:28;;;;;;;12.25;6.13;;;4.40;62.30;;;;;;4768196;30;20056;-70
2022/03/12 02:18:55;;;;;;;11.50;5.80;;;4.40;62.30;;;;;;4823442;29;20097;-70
2022/03/12 02:21:38;;;;;;;14.90;5.75;;;4.40;62.30;;;;;;4826138;29;20495;-71
2022/03/12 02:24:17;;;;;;;12.25;5.80;;;4.40;62.50;;;;;;4842055;29;20042;-71
2022/03/12 02:26:44;;;;;;;15.52;6.00;;;4.30;62.40;;;;;;4841876;29;20136;-70
2022/03/12 02:29:13;;;;;;;14.75;6.20;;;4.30;62.30;;;;;;4842383;29;20042;-71
2022/03/12 02:31:46;;;;;;;12.98;5.70;;;4.30;62.30;;;;;;4842188;29;20133;-70
2022/03/12 02:34:12;;;;;;;15.38;6.20;;;4.30;62.50;;;;;;4825987;29;20082;-70
2022/03/12 02:36:41;;;;;;;12.05;5.60;;;4.30;62.40;;;;;;4842045;29;20088;-71
2022/03/12 02:39:07;;;;;;;16.52;5.95;;;4.30;62.30;;;;;;4825271;29;20106;-71
2022/03/12 02:41:33;;;;;;;12.55;5.93;;;4.30;62.20;;;;;;4841957;29;20103;-71
2022/03/12 02:43:59;;;;;;;13.38;5.95;;;4.30;62.30;;;;;;4842094;29;20050;-72
2022/03/12 02:46:30;;;;;;;12.95;6.20;;;4.30;62.40;;;;;;4841920;29;20053;-71
2022/03/12 02:48:56;;;;;;;13.27;5.78;;;4.30;62.40;;;;;;4841888;29;20050;-71
2022/03/12 02:51:22;;;;;;;12.85;5.60;;;4.30;62.40;;;;;;4842220;29;20401;-72
2022/03/12 02:53:56;;;;;;;12.68;6.03;;;4.30;62.60;;;;;;4841943;29;20041;-70
2022/03/12 02:56:23;;;;;;;12.75;5.75;;;4.30;62.60;;;;;;4841355;29;20506;-72
2022/03/12 02:58:50;;;;;;;13.52;6.18;;;4.30;62.70;;;;;;4841748;29;20058;-71
2022/03/12 03:01:16;;;;;;;12.63;5.07;;;4.30;62.60;;;;;;4840492;29;20058;-71
2022/03/12 03:03:43;;;;;;;11.75;5.93;;;4.20;62.50;;;;;;4825493;29;20050;-71
2022/03/12 03:06:09;;;;;;;15.35;6.07;;;4.30;62.60;;;;;;4842038;29;20073;-73
2022/03/12 03:08:39;;;;;;;12.75;5.85;;;4.20;63.10;;;;;;4825587;29;20516;-71
2022/03/12 03:11:16;;;;;;;12.93;6.18;;;4.30;62.60;;;;;;4841265;29;20518;-72
2022/03/12 03:13:44;;;;;;;10.65;5.03;;;4.20;62.60;;;;;;4841683;29;20085;-71
2022/03/12 03:16:19;;;;;;;12.02;5.95;;;4.20;62.50;;;;;;4842143;29;20050;-71
2022/03/12 03:18:50;;;;;;;11.93;5.18;;;4.20;62.50;;;;;;4825266;29;20129;-72
2022/03/12 03:21:19;;;;;;;11.88;5.28;;;4.20;62.60;;;;;;4841696;29;20058;-71
2022/03/12 03:23:46;;;;;;;10.43;4.82;;;4.20;62.20;;;;;;4841562;29;20514;-71
2022/03/12 03:26:13;;;;;;;11.63;5.22;;;4.20;62.30;;;;;;4841357;29;20130;-71
2022/03/12 03:28:39;;;;;;;10.30;5.07;;;4.20;62.10;;;;;;4841984;29;20046;-71
2022/03/12 03:31:06;;;;;;;11.60;4.88;;;4.20;62.20;;;;;;4841805;29;20056;-72
2022/03/12 03:33:32;;;;;;;10.55;5.32;;;4.20;62.20;;;;;;4841755;29;20046;-70
2022/03/12 03:35:57;;;;;;;12.55;5.68;;;4.20;62.10;;;;;;4841711;29;20065;-71
2022/03/12 03:38:24;;;;;;;11.25;5.68;;;4.30;62.10;;;;;;4841434;29;20491;-72
2022/03/12 03:40:50;;;;;;;11.95;5.25;;;4.30;62.20;;;;;;4841405;29;20046;-69
2022/03/12 03:43:22;;;;;;;12.02;5.15;;;4.20;62.20;;;;;;4839954;29;20480;-71
2022/03/12 03:45:51;;;;;;;14.55;6.15;;;4.20;62.10;;;;;;4841466;29;20502;-71
2022/03/12 03:48:20;;;;;;;11.80;5.78;;;4.20;62.00;;;;;;4841614;29;20053;-71
2022/03/12 03:50:47;;;;;;;11.85;4.55;;;4.30;61.90;;;;;;4841449;29;20074;-71
2022/03/12 03:53:14;;;;;;;16.80;5.53;;;4.30;62.00;;;;;;4841645;29;20065;-71
2022/03/12 03:55:42;;;;;;;12.35;4.78;;;4.20;61.90;;;;;;4841160;29;20491;-71
2022/03/12 03:58:08;;;;;;;13.10;4.97;;;4.30;61.90;;;;;;4825017;29;20054;-72
2022/03/12 04:00:33;;;;;;;14.13;5.50;;;4.20;61.90;;;;;;4841588;29;20166;-71
2022/03/12 04:03:02;;;;;;;10.88;5.03;;;4.20;61.60;;;;;;4841414;29;20105;-71
2022/03/12 04:05:34;;;;;;;15.07;5.68;;;4.20;61.90;;;;;;4841363;29;20056;-72
2022/03/12 04:08:01;;;;;;;10.48;4.50;;;4.20;62.00;;;;;;4841207;29;20503;-71
2022/03/12 04:10:28;;;;;;;12.30;5.20;;;4.20;62.10;;;;;;4841193;29;20554;-71
2022/03/12 04:12:57;;;;;;;13.35;5.03;;;4.20;62.60;;;;;;4841079;29;20058;-71
2022/03/12 04:15:23;;;;;;;12.70;5.28;;;4.20;62.50;;;;;;4843137;29;20060;-71
2022/03/12 04:17:51;;;;;;;16.15;5.20;;;4.20;62.70;;;;;;4844616;29;20062;-71
2022/03/12 04:20:18;;;;;;;11.30;5.15;;;4.10;62.70;;;;;;4844401;29;20129;-69
2022/03/12 04:22:48;;;;;;;10.93;4.95;;;4.40;62.90;;;;;;4827963;29;20058;-71
2022/03/12 04:25:15;;;;;;;10.93;4.72;;;4.10;62.90;;;;;;4844388;29;20050;-69
2022/03/12 04:27:42;;;;;;;11.35;5.05;;;4.10;62.70;;;;;;4843188;29;20061;-69
2022/03/12 04:30:10;;;;;;;11.80;5.22;;;4.10;62.50;;;;;;4843791;29;20053;-73
2022/03/12 04:32:36;;;;;;;11.88;5.60;;;4.20;62.60;;;;;;4844226;29;20046;-71
2022/03/12 04:35:05;;;;;;;11.55;5.28;;;4.50;62.90;;;;;;4827173;29;20139;-71
2022/03/12 04:37:35;;;;;;;10.98;5.18;;;4.10;62.70;;;;;;4844298;29;20050;-70
2022/03/12 04:40:10;;;;;;;10.90;4.90;;;4.10;62.60;;;;;;4827704;29;20046;-71
2022/03/12 04:42:44;;;;;;;13.75;4.93;;;4.10;62.60;;;;;;4844142;29;20054;-71
2022/03/12 04:45:15;;;;;;;11.75;4.85;;;4.10;62.40;;;;;;4843906;29;20050;-70
2022/03/12 04:47:42;;;;;;;12.30;5.53;;;4.20;63.50;;;;;;4844040;29;20507;-69
2022/03/12 04:50:09;;;;;;;12.48;4.82;;;4.10;62.60;;;;;;4842649;29;20299;-70
2022/03/12 04:52:35;;;;;;;10.50;4.50;;;4.00;62.50;;;;;;4843700;29;20052;-71
2022/03/12 04:55:11;;;;;;;11.32;5.00;;;4.00;62.70;;;;;;4844027;29;20053;-72
2022/03/12 04:57:37;;;;;;;11.00;4.53;;;4.00;62.90;;;;;;4843861;29;20066;-71
2022/03/12 05:00:10;;;;;;;11.48;4.35;;;4.30;62.80;;;;;;4827053;29;20050;-72
2022/03/12 05:02:36;;;;;;;10.30;4.47;;;3.90;62.40;;;;;;4826999;29;20133;-71
2022/03/12 05:05:01;;;;;;;10.35;4.53;;;3.90;62.30;;;;;;4843619;29;20547;-72
2022/03/12 05:07:27;;;;;;;12.07;5.03;;;3.80;62.40;;;;;;4843837;29;20081;-71
2022/03/12 05:09:56;;;;;;;12.48;4.68;;;3.90;62.70;;;;;;4843758;29;20064;-71
2022/03/12 05:12:23;;;;;;;10.13;4.35;;;3.80;62.40;;;;;;4843641;29;20041;-71
2022/03/12 05:14:51;;;;;;;11.05;4.30;;;3.70;62.40;;;;;;4843505;29;20050;-71
2022/03/12 05:17:19;;;;;;;11.23;4.78;;;3.70;62.60;;;;;;4843228;29;20407;-70
2022/03/12 05:19:45;;;;;;;13.82;4.90;;;3.70;62.60;;;;;;4843402;29;20046;-71
2022/03/12 05:22:11;;;;;;;12.40;5.28;;;3.60;62.60;;;;;;4843397;29;20061;-71
2022/03/12 05:24:36;;;;;;;13.25;5.07;;;3.60;62.70;;;;;;4843419;29;20050;-72
2022/03/12 05:27:03;;;;;;;10.98;4.13;;;3.60;63.00;;;;;;4843205;29;20052;-70
2022/03/12 05:29:30;;;;;;;8.32;3.03;;;3.50;63.10;;;;;;4843214;29;20512;-72
2022/03/12 05:31:55;;;;;;;8.25;3.17;;;3.50;63.60;;;;;;4842819;29;20087;-72
2022/03/12 05:34:23;;;;;;;9.18;3.00;;;3.40;63.60;;;;;;4825753;29;20054;-72
2022/03/12 05:36:49;;;;;;;9.00;3.17;;;3.40;63.80;;;;;;4841935;29;20049;-71
2022/03/12 05:39:16;;;;;;;9.35;3.30;;;3.30;64.20;;;;;;4843293;29;20065;-71
2022/03/12 05:41:48;;;;;;;9.65;3.40;;;3.90;64.40;;;;;;4843129;29;20050;-71
2022/03/12 05:44:15;;;;;;;9.80;3.53;;;3.30;64.30;;;;;;4842925;29;20177;-69
2022/03/12 05:46:41;;;;;;;11.38;3.40;;;3.20;64.40;;;;;;4841341;29;20072;-72
2022/03/12 05:49:08;;;;;;;9.52;3.65;;;3.20;64.30;;;;;;4841257;29;20129;-72
2022/03/12 05:51:36;;;;;;;9.80;3.30;;;3.20;64.30;;;;;;4843112;29;20440;-71
2022/03/12 05:54:02;;;;;;;9.68;3.45;;;3.20;64.40;;;;;;4842948;29;20058;-71
2022/03/12 05:56:28;;;;;;;9.00;2.95;;;3.10;64.80;;;;;;4842661;29;20050;-72
2022/03/12 05:58:54;;;;;;;8.35;2.90;;;3.10;64.50;;;;;;4842734;29;20091;-72
2022/03/12 06:01:19;;;;;;;9.48;3.63;;;3.10;65.00;;;;;;4842642;29;20041;-72
2022/03/12 06:03:45;;;;;;;7.70;3.03;;;3.10;64.90;;;;;;4842291;29;20054;-70
2022/03/12 06:06:11;;;;;;;7.90;3.05;;;3.10;64.80;;;;;;4826164;29;20061;-71
2022/03/12 06:08:38;;;;;;;8.63;2.95;;;3.00;65.10;;;;;;4842668;29;20054;-71
2022/03/12 06:11:04;;;;;;;8.98;3.72;;;3.00;65.00;;;;;;4826225;29;20581;-72
2022/03/12 06:13:30;;;;;;;12.25;5.50;;;3.00;65.70;;;;;;4842562;29;20129;-70
2022/03/12 06:16:00;;;;;;;8.20;3.13;;;3.00;65.20;;;;;;4826301;29;20062;-72
2022/03/12 06:18:34;;;;;;;9.45;2.58;;;3.00;65.20;;;;;;4842214;29;20113;-72
2022/03/12 06:21:04;;;;;;;7.25;3.10;;;3.00;65.70;;;;;;4842470;29;20056;-71
2022/03/12 06:23:30;;;;;;;10.25;3.25;;;3.00;65.60;;;;;;4842397;29;20054;-72
2022/03/12 06:25:57;;;;;;;9.45;3.03;;;3.00;66.00;;;;;;4842340;29;20078;-71
2022/03/12 06:28:22;;;;;;;11.20;3.10;;;3.00;65.40;;;;;;4842326;29;20050;-70
2022/03/12 06:30:53;;;;;;;11.05;3.28;;;3.10;65.60;;;;;;4826394;29;20053;-71
2022/03/12 06:33:19;;;;;;;10.10;3.22;;;3.10;65.70;;;;;;4842043;29;20046;-71
2022/03/12 06:35:46;;;;;;;10.50;3.13;;;3.20;66.10;;;;;;4841671;29;20061;-70
2022/03/12 06:38:14;;;;;;;9.00;3.05;;;3.20;66.00;;;;;;4841807;29;20049;-71
2022/03/12 06:40:41;;;;;;;8.35;2.38;;;3.30;65.90;;;;;;4842030;29;20512;-72
2022/03/12 06:43:18;;;;;;;9.80;2.65;;;3.30;65.70;;;;;;4836835;29;20060;-71
2022/03/12 06:45:45;;;;;;;6.85;2.55;;;3.40;65.80;;;;;;4832555;29;20038;-71
2022/03/12 06:48:10;;;;;;;10.70;3.83;;;3.40;66.00;;;;;;4828837;29;20062;-72
2022/03/12 06:50:37;;;;;;;9.38;3.33;;;3.50;66.50;;;;;;4823640;29;20053;-71
2022/03/12 06:53:02;;;;;;;10.32;3.58;;;3.50;66.00;;;;;;4823391;29;20082;-71
2022/03/12 06:55:28;;;;;;;7.88;3.30;;;3.60;65.80;;;;;;4823848;29;20146;-71
2022/03/12 06:57:54;;;;;;;8.80;3.03;;;3.60;66.10;;;;;;4823799;29;20043;-72
2022/03/12 07:00:29;;;;;;;7.45;2.72;;;3.60;66.00;;;;;;4807307;29;20576;-72
2022/03/12 07:02:56;;;;;;;8.13;3.10;;;3.60;66.40;;;;;;4823788;29;20047;-71
2022/03/12 07:05:22;;;;;;;9.23;3.90;;;3.70;67.40;;;;;;4823828;29;20077;-71
2022/03/12 07:07:49;;;;;;;9.98;3.92;;;3.70;66.10;;;;;;4791423;29;20095;-71
2022/03/12 07:10:16;;;;;;;11.32;3.97;;;3.80;66.30;;;;;;4823078;29;20404;-73
2022/03/12 07:12:44;;;;;;;9.32;3.60;;;3.70;66.10;;;;;;4806426;29;20070;-71
2022/03/12 07:15:11;;;;;;;9.13;3.78;;;3.80;66.20;;;;;;4823052;29;20138;-71
2022/03/12 07:17:37;;;;;;;9.23;3.85;;;3.80;66.30;;;;;;4823288;29;20851;-72
2022/03/12 07:20:04;;;;;;;9.48;3.78;;;3.90;66.20;;;;;;4807260;29;20141;-72
2022/03/12 07:22:31;;;;;;;10.90;4.03;;;3.90;66.40;;;;;;4823131;29;20061;-70
2022/03/12 07:24:57;;;;;;;8.68;3.60;;;4.50;67.30;;;;;;4823467;29;20129;-72
2022/03/12 07:27:24;;;;;;;10.15;4.15;;;4.00;66.60;;;;;;4823584;29;20077;-72
2022/03/12 07:29:51;;;;;;;9.73;3.35;;;4.60;66.90;;;;;;4823710;29;20042;-70
2022/03/12 07:32:16;;;;;;;9.65;3.38;;;4.10;66.40;;;;;;4823418;29;20058;-70
2022/03/12 07:34:43;;;;;;;13.30;4.25;;;4.20;66.30;;;;;;4825793;29;20109;-69
2022/03/12 07:37:11;;;;;;;9.60;3.60;;;4.30;66.40;;;;;;4815647;29;20057;-71
2022/03/12 07:39:37;;;;;;;11.18;4.05;;;4.40;66.30;;;;;;4834680;29;20073;-70
2022/03/12 07:42:03;;;;;;;9.52;3.33;;;4.80;66.40;;;;;;4841584;29;20050;-69
2022/03/12 07:44:30;;;;;;;11.25;3.50;;;4.60;66.00;;;;;;4825121;29;20125;-71
2022/03/12 07:46:55;;;;;;;10.82;3.90;;;4.70;65.80;;;;;;4841785;29;20062;-70
2022/03/12 07:49:22;;;;;;;10.88;4.13;;;4.80;65.80;;;;;;4825360;29;20058;-69
2022/03/12 07:51:47;;;;;;;11.55;4.07;;;4.90;66.00;;;;;;4845330;29;20526;-71
2022/03/12 07:54:15;;;;;;;9.52;3.90;;;5.50;65.10;;;;;;4827985;29;20058;-69
2022/03/12 07:56:41;;;;;;;9.48;3.78;;;5.10;65.60;;;;;;4828623;29;20148;-71
2022/03/12 07:59:06;;;;;;;11.32;4.05;;;5.20;65.80;;;;;;4828509;29;20182;-70
2022/03/12 08:01:33;;;;;;;10.32;3.58;;;5.30;65.50;;;;;;4828362;29;20503;-69
2022/03/12 08:04:01;;;;;;;10.40;3.67;;;5.40;65.20;;;;;;4844981;29;20068;-69
2022/03/12 08:06:28;;;;;;;8.90;3.55;;;5.50;65.90;;;;;;4843383;29;20091;-73
2022/03/12 08:08:54;;;;;;;13.20;4.57;;;5.80;66.00;;;;;;4842353;29;20145;-73
2022/03/12 08:11:28;;;;;;;8.65;3.50;;;5.60;64.30;;;;;;4843771;29;20129;-71
2022/03/12 08:14:03;;;;;;;12.13;4.40;;;5.90;64.10;;;;;;4842946;29;20437;-71
2022/03/12 08:16:29;;;;;;;13.23;4.13;;;5.90;63.40;;;;;;4842501;29;20046;-71
2022/03/12 08:18:56;;;;;;;9.25;3.58;;;6.00;62.50;;;;;;4826046;29;20062;-74
2022/03/12 08:21:22;;;;;;;9.90;4.03;;;6.10;62.50;;;;;;4825927;29;20110;-71
2022/03/12 08:23:49;;;;;;;8.88;3.88;;;6.30;62.20;;;;;;4843217;29;20054;-70
2022/03/12 08:26:16;;;;;;;11.93;4.03;;;6.40;62.60;;;;;;4842616;29;20149;-72
2022/03/12 08:28:42;;;;;;;12.82;4.47;;;6.60;62.50;;;;;;4842762;29;20563;-70
2022/03/12 08:31:08;;;;;;;10.32;4.38;;;6.70;61.70;;;;;;4842470;29;20414;-72
2022/03/12 08:33:35;;;;;;;12.82;4.28;;;6.80;61.70;;;;;;4842737;29;20054;-72
2022/03/12 08:36:02;;;;;;;9.57;4.13;;;7.00;61.10;;;;;;4842671;29;20046;-71
2022/03/12 08:38:32;;;;;;;10.27;4.47;;;7.30;61.60;;;;;;4837328;29;20126;-73
2022/03/12 08:40:58;;;;;;;12.15;4.38;;;7.20;60.80;;;;;;4832865;29;20133;-68
2022/03/12 08:43:24;;;;;;;13.00;4.20;;;7.30;60.30;;;;;;4835234;29;20140;-71
2022/03/12 08:45:49;;;;;;;11.60;4.28;;;7.40;60.50;;;;;;4832904;29;20049;-72
2022/03/12 08:48:16;;;;;;;12.32;4.40;;;7.50;60.20;;;;;;4831975;29;20049;-71
2022/03/12 08:50:47;;;;;;;11.88;4.35;;;7.60;59.90;;;;;;4832339;29;20045;-71
2022/03/12 08:53:13;;;;;;;11.35;4.57;;;7.60;60.20;;;;;;4833342;29;20053;-69
2022/03/12 08:55:40;;;;;;;11.65;4.40;;;7.70;60.80;;;;;;4831113;29;20574;-70
2022/03/12 08:58:06;;;;;;;10.75;4.10;;;7.80;60.30;;;;;;4831941;29;20038;-75
2022/03/12 09:00:32;;;;;;;15.95;5.18;;;7.80;60.80;;;;;;4816788;29;20558;-70
2022/03/12 09:02:58;;;;;;;10.57;4.43;;;7.90;60.60;;;;;;4814732;29;20041;-68
2022/03/12 09:05:24;;;;;;;11.90;5.18;;;8.00;60.60;;;;;;4830080;29;20138;-70
2022/03/12 09:07:52;;;;;;;12.02;5.40;;;8.10;60.30;;;;;;4817040;29;20054;-71
2022/03/12 09:10:19;;;;;;;11.32;4.25;;;9.00;60.50;;;;;;4832624;29;20041;-72
2022/03/12 09:12:45;;;;;;;12.52;4.55;;;8.70;60.30;;;;;;4831214;29;20049;-74
2022/03/12 09:15:12;;;;;;;10.88;4.82;;;8.50;59.70;;;;;;4832860;29;20053;-71
2022/03/12 09:17:38;;;;;;;15.93;4.10;;;8.80;60.00;;;;;;4834148;29;20050;-72
2022/03/12 09:20:04;;;;;;;9.30;4.13;;;8.80;60.00;;;;;;4831880;29;20074;-72
2022/03/12 09:22:30;;;;;;;11.00;4.18;;;8.90;59.60;;;;;;4820345;29;20145;-70
2022/03/12 09:24:56;;;;;;;10.95;4.30;;;9.00;59.70;;;;;;4831916;29;20494;-70
2022/03/12 09:27:22;;;;;;;9.43;4.00;;;9.10;60.40;;;;;;4833356;29;20053;-71
2022/03/12 09:29:48;;;;;;;12.38;5.20;;;9.20;61.90;;;;;;4834137;29;20137;-68
2022/03/12 09:32:13;;;;;;;10.85;4.63;;;9.90;61.20;;;;;;4831921;29;20541;-72
2022/03/12 09:34:40;;;;;;;11.15;4.53;;;9.40;60.20;;;;;;4819768;29;20137;-78
2022/03/12 09:37:09;;;;;;;12.57;4.75;;;9.50;60.90;;;;;;4846747;29;20358;-68
2022/03/12 09:39:35;;;;;;;14.05;5.78;;;9.60;60.80;;;;;;4834049;29;20045;-71
2022/03/12 09:42:00;;;;;;;11.27;5.05;;;9.70;60.70;;;;;;4833651;29;20050;-70
2022/03/12 09:44:26;;;;;;;13.88;4.63;;;9.80;62.70;;;;;;4831989;29;20050;-70
2022/03/12 09:46:52;;;;;;;13.38;5.57;;;10.00;62.20;;;;;;4814920;29;20547;-71
2022/03/12 09:49:18;;;;;;;14.38;4.55;;;10.10;63.20;;;;;;4824496;29;20106;-68
2022/03/12 09:51:44;;;;;;;12.15;4.85;;;10.20;63.10;;;;;;4824686;29;20050;-71
2022/03/12 09:54:11;;;;;;;13.07;5.05;;;10.20;62.40;;;;;;4824181;29;20509;-71
2022/03/12 09:56:37;;;;;;;10.73;4.70;;;10.40;63.20;;;;;;4824060;29;20138;-70
2022/03/12 09:59:05;;;;;;;10.15;4.47;;;10.50;63.80;;;;;;4828070;29;20121;-70
2022/03/12 10:01:31;;;;;;;12.43;4.88;;;10.70;65.10;;;;;;4840501;29;20121;-71
2022/03/12 10:03:58;;;;;;;12.90;4.43;;;10.80;64.60;;;;;;4824170;29;20053;-72
2022/03/12 10:06:24;;;;;;;11.05;4.68;;;10.90;65.30;;;;;;4809084;29;20058;-74
2022/03/12 10:08:49;;;;;;;12.48;4.43;;;11.10;64.80;;;;;;4841049;29;20454;-74
2022/03/12 10:11:15;;;;;;;11.88;4.70;;;11.00;66.20;;;;;;4824263;29;20100;-77
2022/03/12 10:13:41;;;;;;;13.82;4.47;;;11.50;67.40;;;;;;4854525;29;20446;-75
2022/03/12 10:16:09;;;;;;;12.80;5.35;;;11.20;68.70;;;;;;4824400;29;20498;-75
2022/03/12 10:18:36;;;;;;;16.10;5.03;;;11.30;68.20;;;;;;4841215;29;20198;-75
2022/03/12 10:21:02;;;;;;;15.20;5.35;;;11.30;67.30;;;;;;4846867;29;20050;-73
2022/03/12 10:23:28;;;;;;;13.45;5.60;;;11.40;67.80;;;;;;4835033;29;20140;-71
2022/03/12 10:25:54;;;;;;;14.52;5.35;;;11.60;70.30;;;;;;4844534;29;20048;-74
2022/03/12 10:28:20;;;;;;;11.27;5.43;;;11.70;69.20;;;;;;4842042;29;20262;-79
2022/03/12 10:30:46;;;;;;;14.90;4.55;;;11.70;67.90;;;;;;4824078;29;20197;-76
2022/03/12 10:33:23;;;;;;;11.45;5.40;;;11.80;71.00;;;;;;4840290;29;20049;-74
2022/03/12 10:35:50;;;;;;;10.45;4.60;;;12.30;70.50;;;;;;4839812;29;20054;-75
2022/03/12 10:38:17;;;;;;;11.10;4.63;;;12.10;70.30;;;;;;4840409;29;20132;-77
2022/03/12 10:40:44;;;;;;;13.38;4.85;;;12.30;71.60;;;;;;4840319;29;20049;-80
2022/03/12 10:43:15;;;;;;;12.43;5.20;;;12.30;70.40;;;;;;4839986;29;20279;-77
2022/03/12 10:45:46;;;;;;;11.68;4.95;;;12.40;71.00;;;;;;4839432;29;20049;-77
2022/03/12 10:48:14;;;;;;;11.70;5.53;;;12.50;71.40;;;;;;4823921;29;20050;-76
2022/03/12 10:50:42;;;;;;;13.20;5.35;;;12.50;71.90;;;;;;4840321;29;20054;-77
2022/03/12 10:53:09;;;;;;;10.40;4.78;;;12.60;72.60;;;;;;4839752;29;20494;-77
2022/03/12 10:55:37;;;;;;;11.75;5.20;;;12.90;76.50;;;;;;4840656;29;20058;-78
2022/03/12 10:58:10;;;;;;;12.07;5.10;;;12.90;75.20;;;;;;4840300;29;20065;-77
2022/03/12 11:00:39;;;;;;;12.10;5.38;;;13.00;76.50;;;;;;4840696;29;20050;-77
2022/03/12 11:03:10;;;;;;;11.13;5.60;;;13.10;78.30;;;;;;4836645;29;20062;-76
2022/03/12 11:05:38;;;;;;;10.90;5.38;;;13.20;79.60;;;;;;4814803;29;20054;-79
2022/03/12 11:08:23;;;;;;;13.82;6.32;;;13.20;79.30;;;;;;4814093;29;20057;-76
2022/03/12 11:11:06;;;;;;;13.90;5.05;;;13.10;76.20;;;;;;4820187;29;20049;-77
2022/03/12 11:13:47;;;;;;;11.48;5.50;;;13.20;79.30;;;;;;4830974;29;20045;-77
2022/03/12 11:16:28;;;;;;;14.90;5.60;;;13.20;80.20;;;;;;4830964;29;20047;-79
2022/03/12 11:18:54;;;;;;;13.15;5.93;;;13.30;78.20;;;;;;4831170;29;20054;-77
2022/03/12 11:21:39;;;;;;;12.98;5.05;;;13.30;77.20;;;;;;4839787;29;20070;-76
2022/03/12 11:24:15;;;;;;;13.65;5.97;;;13.30;78.10;;;;;;4841535;29;20053;-84
2022/03/12 11:27:07;;;;;;;16.73;5.32;;;13.50;78.40;;;;;;4844644;29;20050;-82
2022/03/12 11:29:35;;;;;;;15.38;6.40;;;13.60;79.50;;;;;;4840506;29;20126;-80
2022/03/12 11:32:05;;;;;;;13.35;5.10;;;13.70;77.50;;;;;;4843255;29;20060;-76
2022/03/12 11:34:40;;;;;;;12.35;5.03;;;13.80;78.70;;;;;;4842424;29;20648;-76
2022/03/12 11:37:12;;;;;;;10.60;4.97;;;13.80;78.70;;;;;;4842261;29;20061;-77
2022/03/12 11:39:41;;;;;;;12.30;5.35;;;13.80;78.70;;;;;;4826841;29;20053;-75
2022/03/12 11:42:12;;;;;;;11.07;5.53;;;13.90;76.70;;;;;;4842241;29;20054;-75
2022/03/12 11:44:39;;;;;;;15.45;6.65;;;14.00;78.10;;;;;;4843007;29;20462;-76
2022/03/12 11:47:05;;;;;;;11.98;5.88;;;14.10;75.60;;;;;;4842634;29;20579;-75
2022/03/12 11:49:32;;;;;;;11.77;5.40;;;14.10;76.90;;;;;;4842361;29;20042;-77
2022/03/12 11:51:59;;;;;;;13.02;6.45;;;14.10;75.60;;;;;;4842524;29;20138;-75
2022/03/12 11:54:26;;;;;;;12.30;5.78;;;14.10;73.80;;;;;;4842516;29;20459;-75
2022/03/12 11:56:52;;;;;;;15.15;6.65;;;14.20;74.40;;;;;;4825526;29;20066;-75
2022/03/12 11:59:18;;;;;;;14.70;6.00;;;14.30;75.70;;;;;;4843028;29;20513;-76
2022/03/12 12:02:01;;;;;;;12.50;5.45;;;14.30;74.20;;;;;;4826994;29;20060;-77
2022/03/12 12:04:30;;;;;;;24.42;7.05;;;14.40;76.70;;;;;;4842670;29;20058;-77
2022/03/12 12:06:57;;;;;;;12.98;6.80;;;14.30;73.90;;;;;;4811343;29;20081;-76
2022/03/12 12:09:22;;;;;;;16.70;5.82;;;14.30;73.80;;;;;;4842643;29;20091;-76
2022/03/12 12:11:48;;;;;;;12.65;6.10;;;14.50;76.10;;;;;;4827138;29;20056;-76
2022/03/12 12:14:14;;;;;;;13.38;6.25;;;14.60;75.70;;;;;;4842676;29;20483;-77
2022/03/12 12:16:43;;;;;;;14.23;6.07;;;14.50;74.70;;;;;;4842966;29;20061;-75
2022/03/12 12:19:09;;;;;;;12.48;6.55;;;14.60;75.10;;;;;;4842460;29;20050;-74
2022/03/12 12:21:35;;;;;;;16.00;6.20;;;14.50;76.10;;;;;;4825270;29;20117;-74
2022/03/12 12:24:28;;;;;;;11.63;5.57;;;14.40;76.10;;;;;;4825561;29;20482;-75
2022/03/12 12:27:13;;;;;;;12.55;5.18;;;14.50;77.30;;;;;;4842476;29;20053;-77
2022/03/12 12:29:56;;;;;;;13.90;6.30;;;14.30;79.50;;;;;;4842633;29;20106;-76
2022/03/12 12:32:26;;;;;;;15.48;7.95;;;14.10;79.70;;;;;;4842676;29;20084;-77
2022/03/12 12:35:04;;;;;;;14.95;5.90;;;14.20;80.30;;;;;;4841459;29;20042;-76
2022/03/12 12:37:46;;;;;;;15.57;7.95;;;13.90;82.50;;;;;;4841865;29;20185;-79
2022/03/12 12:40:31;;;;;;;15.18;6.80;;;13.90;83.00;;;;;;4842431;29;20038;-76
2022/03/12 12:42:59;;;;;;;16.25;7.97;;;14.00;83.50;;;;;;4810235;29;20057;-77
2022/03/12 12:45:28;;;;;;;14.35;5.00;;;14.20;81.80;;;;;;4841862;29;20058;-79
2022/03/12 12:48:15;;;;;;;13.13;6.80;;;14.70;81.80;;;;;;4810027;29;20066;-78
2022/03/12 12:51:06;;;;;;;14.13;6.20;;;14.50;82.10;;;;;;4842511;29;20422;-77